Time;durP1;ratioP1;P1;durP2;ratioP2;P2;SDS_P1;SDS_P2;PMS_P1;PMS_P2;Temp;Humidity;BMP_temperature;BMP_pressure;BME280_temperature;BME280_humidity;BME280_pressure;Samples;Min_cycle;Max_cycle;Signal;HPM_P1;HPM_P2
2021/05/16 00:02:35;;;;;;;4.20;2.27;;;8.10;99.90;;;;;;20921531;28;20030;-76
2021/05/16 00:12:37;;;;;;;3.60;2.33;;;8.10;99.90;;;;;;20923809;28;20282;-78
2021/05/16 00:22:38;;;;;;;;;;;8.20;99.90;;;;;;20942048;22;20372;-78
2021/05/16 00:32:39;;;;;;;7.53;3.22;;;8.10;99.90;;;;;;20963435;28;19927;-81
2021/05/16 00:42:40;;;;;;;5.73;2.40;;;8.00;99.90;;;;;;20942123;28;20048;-79
2021/05/16 00:52:41;;;;;;;5.60;2.50;;;8.20;99.90;;;;;;20943776;28;20479;-80
2021/05/16 01:02:43;;;;;;;8.13;3.78;;;8.10;99.90;;;;;;21003164;28;20060;-80
2021/05/16 01:12:49;;;;;;;6.97;3.53;;;8.10;99.90;;;;;;21030943;28;20043;-80
2021/05/16 01:22:53;;;;;;;11.68;3.72;;;8.10;99.90;;;;;;21003825;28;20043;-80
2021/05/16 01:32:54;;;;;;;9.38;4.20;;;8.10;99.90;;;;;;21029167;28;20032;-80
2021/05/16 01:42:57;;;;;;;5.55;4.10;;;8.00;99.90;;;;;;21035602;28;20051;-81
2021/05/16 01:53:01;;;;;;;7.43;4.13;;;7.90;99.90;;;;;;21034991;28;20033;-80
2021/05/16 02:03:02;;;;;;;8.45;3.55;;;7.90;99.90;;;;;;21040439;28;20035;-79
2021/05/16 02:13:09;;;;;;;4.63;2.72;;;7.90;99.90;;;;;;21035434;28;20036;-79
2021/05/16 02:23:12;;;;;;;4.35;2.38;;;8.00;99.90;;;;;;21036794;28;20461;-78
2021/05/16 02:33:16;;;;;;;4.43;2.47;;;8.10;99.90;;;;;;20994462;28;20037;-79
2021/05/16 02:43:17;;;;;;;3.87;2.97;;;8.20;99.90;;;;;;20953407;28;20029;-80
2021/05/16 02:53:20;;;;;;;7.17;4.13;;;8.20;99.90;;;;;;20956160;28;20033;-80
2021/05/16 03:03:28;;;;;;;5.00;3.53;;;8.20;99.90;;;;;;20950619;28;20043;-80
2021/05/16 03:13:35;;;;;;;7.30;4.25;;;8.10;99.90;;;;;;20955583;28;20028;-81
2021/05/16 03:23:46;;;;;;;8.43;4.32;;;8.10;99.90;;;;;;20933695;28;20518;-81
2021/05/16 03:33:48;;;;;;;76.35;5.18;;;8.00;99.90;;;;;;20978503;28;20112;-81
2021/05/16 03:43:49;;;;;;;27.23;5.53;;;7.80;99.90;;;;;;21025005;28;20109;-80
2021/05/16 03:53:50;;;;;;;14.98;7.20;;;7.50;99.90;;;;;;20946985;28;20104;-81
2021/05/16 04:03:51;;;;;;;11.63;5.73;;;7.60;99.90;;;;;;20945763;28;20044;-81
2021/05/16 04:13:52;;;;;;;13.43;5.67;;;7.80;99.90;;;;;;20949947;28;20037;-80
2021/05/16 04:23:53;;;;;;;10.23;5.57;;;7.90;99.90;;;;;;20950525;28;20033;-79
2021/05/16 04:33:54;;;;;;;5.90;4.03;;;8.00;99.90;;;;;;20976910;28;20275;-78
2021/05/16 04:43:55;;;;;;;6.77;4.40;;;8.10;99.90;;;;;;21006583;28;20036;-81
2021/05/16 04:53:56;;;;;;;9.43;4.83;;;8.30;99.90;;;;;;21020158;28;20060;-80
2021/05/16 05:03:58;;;;;;;10.00;4.60;;;8.30;99.90;;;;;;21011708;28;20036;-80
2021/05/16 05:13:59;;;;;;;8.13;4.00;;;8.40;99.90;;;;;;21011472;28;20428;-81
2021/05/16 05:24:00;;;;;;;9.30;4.53;;;8.70;99.90;;;;;;21006186;28;20036;-81
2021/05/16 05:34:01;;;;;;;7.23;3.27;;;9.30;99.90;;;;;;20982981;28;20037;-80
2021/05/16 05:44:03;;;;;;;9.03;4.07;;;9.40;99.90;;;;;;20931212;28;20121;-80
2021/05/16 05:54:04;;;;;;;;;;;9.30;99.90;;;;;;20923587;28;20096;-82
2021/05/16 06:04:05;;;;;;;6.88;3.90;;;9.30;99.90;;;;;;20945137;28;19936;-80
2021/05/16 06:14:06;;;;;;;338.03;156.30;;;9.30;99.90;;;;;;20923910;28;20449;-82
2021/05/16 06:24:10;;;;;;;9.37;5.30;;;9.70;99.90;;;;;;20922242;28;20021;-80
2021/05/16 06:34:11;;;;;;;11.90;5.32;;;10.10;99.90;;;;;;20913407;28;20024;-80
2021/05/16 06:44:12;;;;;;;11.07;2.60;;;10.20;99.90;;;;;;20909363;28;20097;-82
2021/05/16 06:54:13;;;;;;;6.67;2.93;;;10.10;99.90;;;;;;20894223;28;20045;-78
2021/05/16 07:04:14;;;;;;;11.40;3.40;;;10.50;99.90;;;;;;20908509;28;20029;-78
2021/05/16 07:14:15;;;;;;;10.07;2.70;;;11.10;99.90;;;;;;20968421;28;20526;-80
2021/05/16 07:24:16;;;;;;;3.43;2.20;;;11.40;99.90;;;;;;20903555;28;20392;-78
2021/05/16 07:34:17;;;;;;;5.80;2.90;;;11.50;99.90;;;;;;20928793;28;20040;-79
2021/05/16 07:44:17;;;;;;;5.77;2.07;;;12.20;99.90;;;;;;20921687;28;20037;-79
2021/05/16 07:54:18;;;;;;;6.43;1.67;;;12.10;99.90;;;;;;20912262;28;20402;-77
2021/05/16 08:04:19;;;;;;;5.23;1.97;;;13.40;99.90;;;;;;20910251;28;20033;-80
2021/05/16 08:14:20;;;;;;;9.30;2.50;;;13.20;99.90;;;;;;20914474;28;20080;-80
2021/05/16 08:24:21;;;;;;;4.97;1.70;;;13.90;99.90;;;;;;20903275;28;20076;-78
2021/05/16 08:34:22;;;;;;;7.37;1.00;;;13.90;99.90;;;;;;20892677;28;20041;-80
2021/05/16 08:44:23;;;;;;;4.57;0.90;;;14.10;99.90;;;;;;20911549;28;20143;-79
2021/05/16 08:54:25;;;;;;;7.17;1.77;;;14.70;99.90;;;;;;20913514;28;20028;-78
2021/05/16 09:04:37;;;;;;;34.87;10.87;;;14.10;99.90;;;;;;20912280;28;20041;-82
2021/05/16 09:14:47;;;;;;;9.20;2.40;;;14.10;99.90;;;;;;20900882;28;20033;-78
2021/05/16 09:24:48;;;;;;;2.55;1.10;;;14.20;99.90;;;;;;20886208;28;20517;-77
2021/05/16 09:34:51;;;;;;;6.13;1.17;;;14.90;99.90;;;;;;20898650;28;20057;-77
2021/05/16 09:44:54;;;;;;;2.13;0.80;;;15.90;99.90;;;;;;20901193;28;20033;-79
2021/05/16 09:54:57;;;;;;;3.67;0.95;;;15.70;99.90;;;;;;20903362;28;20120;-80
2021/05/16 10:05:01;;;;;;;4.55;0.90;;;15.20;99.90;;;;;;20899871;28;20029;-78
2021/05/16 10:15:09;;;;;;;3.45;0.82;;;15.30;99.90;;;;;;20906360;28;20411;-79
2021/05/16 10:25:12;;;;;;;4.70;1.00;;;15.20;99.90;;;;;;20916058;28;20037;-79
2021/05/16 10:35:14;;;;;;;5.10;0.90;;;14.90;99.90;;;;;;20954635;28;20037;-77
2021/05/16 10:45:20;;;;;;;;;;;14.60;99.90;;;;;;21007720;28;20032;-79
2021/05/16 10:55:41;;;;;;;3.40;1.08;;;14.70;99.90;;;;;;20920037;28;19943;-76
2021/05/16 11:16:06;;;;;;;7.45;1.20;;;14.50;99.90;;;;;;20929895;28;20089;-78
2021/05/16 11:26:15;;;;;;;3.25;1.00;;;13.90;99.90;;;;;;20913421;28;20063;-80
2021/05/16 11:36:19;;;;;;;3.08;1.48;;;13.60;99.90;;;;;;20925644;28;20037;-80
2021/05/16 11:46:32;;;;;;;7.30;1.92;;;12.80;99.90;;;;;;20922532;28;20021;-78
2021/05/16 11:56:43;;;;;;;2.85;1.58;;;12.60;99.90;;;;;;20919404;28;20458;-78
2021/05/16 12:06:52;;;;;;;5.28;1.75;;;12.80;99.90;;;;;;20917457;28;20033;-77
2021/05/16 12:17:00;;;;;;;5.30;1.50;;;12.40;99.90;;;;;;20920642;28;20040;-79
2021/05/16 12:27:03;;;;;;;8.45;1.55;;;12.10;99.90;;;;;;20904061;28;20097;-75
2021/05/16 12:37:19;;;;;;;5.75;1.70;;;12.50;99.90;;;;;;20907969;22;20589;-75
2021/05/16 12:47:26;;;;;;;3.88;1.48;;;13.00;99.90;;;;;;20882942;28;20044;-78
2021/05/16 13:07:49;;;;;;;1.93;1.07;;;13.30;99.90;;;;;;20886411;28;20095;-77
2021/05/16 13:17:50;;;;;;;3.08;1.25;;;13.20;99.90;;;;;;20890301;28;20032;-77
2021/05/16 13:27:56;;;;;;;3.60;1.20;;;13.10;99.90;;;;;;20880341;28;20079;-77
2021/05/16 13:37:56;;;;;;;2.08;0.77;;;12.70;99.90;;;;;;20894483;28;20094;-77
2021/05/16 13:47:57;;;;;;;0.40;0.33;;;12.40;99.90;;;;;;20885237;28;20028;-76
2021/05/16 13:58:01;;;;;;;0.87;0.40;;;12.00;99.90;;;;;;20901922;28;20047;-79
2021/05/16 14:08:03;;;;;;;0.30;0.20;;;11.90;99.90;;;;;;20902414;28;20033;-76
2021/05/16 14:18:04;;;;;;;0.47;0.28;;;12.00;99.90;;;;;;20899253;28;20069;-77
2021/05/16 14:28:05;;;;;;;0.80;0.40;;;12.50;99.90;;;;;;20872492;28;20694;-77
2021/05/16 14:38:05;;;;;;;0.13;0.10;;;12.80;99.90;;;;;;20897526;28;20033;-79
2021/05/16 14:48:07;;;;;;;6.07;2.23;;;12.10;99.90;;;;;;20890261;28;20051;-77
2021/05/16 14:58:08;;;;;;;2.83;1.30;;;12.00;99.90;;;;;;20895940;28;20032;-78
2021/05/16 15:08:09;;;;;;;1.67;0.70;;;12.20;99.90;;;;;;20893442;28;20040;-78
2021/05/16 15:18:10;;;;;;;1.02;0.55;;;12.20;99.90;;;;;;20893272;28;20704;-77
2021/05/16 15:28:10;;;;;;;0.93;0.63;;;12.20;99.90;;;;;;20894194;28;20033;-78
2021/05/16 15:38:12;;;;;;;2.78;0.73;;;12.80;99.90;;;;;;20890745;28;20037;-78
2021/05/16 15:48:13;;;;;;;1.37;0.73;;;12.80;99.90;;;;;;20892408;28;20037;-78
2021/05/16 15:58:14;;;;;;;2.13;0.80;;;12.50;99.90;;;;;;20883135;28;20108;-78
2021/05/16 16:08:14;;;;;;;2.67;0.53;;;12.20;99.90;;;;;;20829076;28;20056;-78
2021/05/16 16:18:15;;;;;;;2.40;0.87;;;12.00;99.90;;;;;;20831935;28;20029;-78
2021/05/16 16:28:17;;;;;;;3.30;1.45;;;12.10;99.90;;;;;;20911144;28;20035;-78
2021/05/16 16:38:18;;;;;;;3.08;1.27;;;12.20;99.90;;;;;;20974772;28;20032;-78
2021/05/16 16:48:19;;;;;;;2.30;1.03;;;12.40;99.90;;;;;;20990596;28;20028;-78
2021/05/16 16:58:21;;;;;;;2.20;0.90;;;12.30;99.90;;;;;;20991038;28;20506;-77
2021/05/16 17:08:22;;;;;;;1.17;0.60;;;12.20;99.90;;;;;;20990881;28;20399;-77
2021/05/16 17:18:24;;;;;;;2.00;0.80;;;11.90;99.90;;;;;;20916118;28;20078;-78
2021/05/16 17:28:25;;;;;;;2.17;1.60;;;11.80;99.90;;;;;;20905338;28;20044;-79
2021/05/16 17:38:26;;;;;;;1.37;1.10;;;11.80;99.90;;;;;;20905715;28;20756;-78
2021/05/16 17:48:38;;;;;;;1.97;1.10;;;11.60;99.90;;;;;;20905001;28;20036;-79
2021/05/16 17:58:41;;;;;;;2.13;0.90;;;11.50;99.90;;;;;;20902986;28;20039;-78
2021/05/16 18:08:43;;;;;;;0.65;0.50;;;11.30;99.90;;;;;;20903780;28;20468;-78
2021/05/16 18:18:46;;;;;;;1.63;0.80;;;11.10;99.90;;;;;;20890270;28;20035;-78
2021/05/16 18:28:47;;;;;;;12.38;6.53;;;11.00;99.90;;;;;;20883953;28;20112;-78
2021/05/16 18:38:48;;;;;;;2.10;1.00;;;11.10;99.90;;;;;;20895781;28;20028;-78
2021/05/16 18:48:50;;;;;;;2.40;1.27;;;10.90;99.90;;;;;;20898426;28;20513;-77
2021/05/16 18:58:53;;;;;;;8.25;1.80;;;10.70;99.90;;;;;;20896423;28;20029;-79
2021/05/16 19:08:55;;;;;;;2.70;0.90;;;10.60;99.90;;;;;;20896301;28;20047;-78
2021/05/16 19:18:56;;;;;;;0.55;0.20;;;10.50;99.90;;;;;;20895771;28;20033;-78
2021/05/16 19:28:57;;;;;;;6.17;0.50;;;10.40;99.90;;;;;;20929582;28;20091;-77
2021/05/16 19:38:58;;;;;;;1.50;0.60;;;10.40;99.90;;;;;;20897602;28;20402;-78
2021/05/16 19:48:58;;;;;;;0.67;0.30;;;10.30;99.90;;;;;;20891936;28;20037;-78
2021/05/16 19:59:00;;;;;;;2.10;0.67;;;10.10;99.90;;;;;;20893150;28;20064;-78
2021/05/16 20:09:03;;;;;;;2.08;0.90;;;10.10;99.90;;;;;;20889426;28;20041;-78
2021/05/16 20:19:04;;;;;;;2.55;1.20;;;9.90;99.90;;;;;;20890505;28;20040;-77
2021/05/16 20:29:13;;;;;;;1.65;0.80;;;9.80;99.90;;;;;;20890260;28;20052;-77
2021/05/16 20:39:14;;;;;;;1.73;1.50;;;9.80;99.90;;;;;;20943317;28;20064;-77
2021/05/16 20:49:16;;;;;;;1.27;0.93;;;9.70;99.90;;;;;;20894180;28;20499;-77
2021/05/16 20:59:17;;;;;;;;;;;9.70;99.90;;;;;;20897611;28;20029;-78
2021/05/16 21:09:18;;;;;;;0.93;0.80;;;9.70;99.90;;;;;;20903867;28;20493;-78
2021/05/16 21:19:19;;;;;;;2.57;0.80;;;9.70;99.90;;;;;;20905261;28;20494;-78
2021/05/16 21:29:20;;;;;;;1.77;0.90;;;9.80;99.90;;;;;;20905004;28;20068;-77
2021/05/16 21:39:21;;;;;;;1.50;0.83;;;9.90;99.90;;;;;;20980975;28;20049;-77
2021/05/16 21:49:22;;;;;;;5.87;1.13;;;9.80;99.90;;;;;;20936251;28;20059;-77
2021/05/16 21:59:26;;;;;;;5.03;1.40;;;9.70;99.90;;;;;;20924845;22;20042;-84
2021/05/16 22:09:27;;;;;;;6.05;0.73;;;9.70;99.90;;;;;;20858863;28;20045;-83
2021/05/16 22:19:28;;;;;;;0.83;0.37;;;9.50;99.90;;;;;;20854311;28;20080;-81
2021/05/16 22:29:29;;;;;;;0.77;0.27;;;9.40;99.90;;;;;;20857024;28;20038;-80
2021/05/16 22:39:30;;;;;;;1.70;0.40;;;9.30;99.90;;;;;;20855830;28;20037;-80
2021/05/16 22:49:31;;;;;;;2.73;0.50;;;9.00;99.90;;;;;;20853485;28;20044;-77
2021/05/16 22:59:35;;;;;;;0.77;0.70;;;9.00;99.90;;;;;;20852689;28;20379;-80
2021/05/16 23:09:44;;;;;;;0.88;0.65;;;8.90;99.90;;;;;;20855250;28;20125;-81
2021/05/16 23:19:45;;;;;;;0.40;0.40;;;8.90;99.90;;;;;;20834921;28;20029;-84
2021/05/16 23:29:46;;;;;;;4.67;0.80;;;8.80;99.90;;;;;;20848882;28;20554;-79
2021/05/16 23:39:47;;;;;;;1.33;0.70;;;8.80;99.90;;;;;;20846562;28;20482;-82
2021/05/16 23:49:48;;;;;;;3.03;1.07;;;8.80;99.90;;;;;;20848608;28;20026;-83
2021/05/16 23:59:51;;;;;;;4.23;1.10;;;8.70;99.90;;;;;;20848547;28;20264;-81
